sensor_id;sensor_type;location;lat;lon;timestamp;P1;durP1;ratioP1;P2;durP2;ratioP2
5801;SDS011;2927;49.366;8.530;2023-03-01T00:01:14;18.93;;;7.67;;
5801;SDS011;2927;49.366;8.530;2023-03-01T00:03:41;20.80;;;8.00;;
5801;SDS011;2927;49.366;8.530;2023-03-01T00:06:08;11.13;;;6.17;;
5801;SDS011;2927;49.366;8.530;2023-03-01T00:08:33;18.57;;;6.30;;
5801;SDS011;2927;49.366;8.530;2023-03-01T00:11:04;8.83;;;5.90;;
5801;SDS011;2927;49.366;8.530;2023-03-01T00:13:51;13.50;;;6.90;;
5801;SDS011;2927;49.366;8.530;2023-03-01T00:16:22;11.20;;;6.40;;
5801;SDS011;2927;49.366;8.530;2023-03-01T00:18:53;16.70;;;7.20;;
5801;SDS011;2927;49.366;8.530;2023-03-01T00:21:20;18.80;;;8.23;;
5801;SDS011;2927;49.366;8.530;2023-03-01T00:23:49;12.60;;;6.03;;
5801;SDS011;2927;49.366;8.530;2023-03-01T00:26:16;14.97;;;7.63;;
5801;SDS011;2927;49.366;8.530;2023-03-01T00:28:43;19.37;;;7.67;;
5801;SDS011;2927;49.366;8.530;2023-03-01T00:31:10;15.67;;;8.43;;
5801;SDS011;2927;49.366;8.530;2023-03-01T00:33:38;15.33;;;7.97;;
5801;SDS011;2927;49.366;8.530;2023-03-01T00:36:04;19.27;;;8.40;;
5801;SDS011;2927;49.366;8.530;2023-03-01T00:38:30;16.33;;;7.60;;
5801;SDS011;2927;49.366;8.530;2023-03-01T00:41:06;30.37;;;9.43;;
5801;SDS011;2927;49.366;8.530;2023-03-01T00:43:33;13.80;;;7.47;;
5801;SDS011;2927;49.366;8.530;2023-03-01T00:46:02;14.00;;;7.00;;
5801;SDS011;2927;49.366;8.530;2023-03-01T00:48:31;14.40;;;7.33;;
5801;SDS011;2927;49.366;8.530;2023-03-01T00:51:03;10.83;;;6.73;;
5801;SDS011;2927;49.366;8.530;2023-03-01T00:53:39;15.00;;;7.20;;
5801;SDS011;2927;49.366;8.530;2023-03-01T00:56:05;21.40;;;8.70;;
5801;SDS011;2927;49.366;8.530;2023-03-01T00:58:32;18.97;;;7.87;;
5801;SDS011;2927;49.366;8.530;2023-03-01T01:00:59;21.20;;;10.57;;
5801;SDS011;2927;49.366;8.530;2023-03-01T01:03:25;36.90;;;11.30;;
5801;SDS011;2927;49.366;8.530;2023-03-01T01:05:51;25.70;;;7.80;;
5801;SDS011;2927;49.366;8.530;2023-03-01T01:08:17;17.53;;;8.40;;
5801;SDS011;2927;49.366;8.530;2023-03-01T01:10:44;19.33;;;8.13;;
5801;SDS011;2927;49.366;8.530;2023-03-01T01:13:10;12.53;;;7.90;;
5801;SDS011;2927;49.366;8.530;2023-03-01T01:15:36;17.03;;;8.37;;
5801;SDS011;2927;49.366;8.530;2023-03-01T01:18:02;19.37;;;8.10;;
5801;SDS011;2927;49.366;8.530;2023-03-01T01:20:27;17.50;;;7.90;;
5801;SDS011;2927;49.366;8.530;2023-03-01T01:22:53;15.07;;;7.00;;
5801;SDS011;2927;49.366;8.530;2023-03-01T01:25:19;15.80;;;8.20;;
5801;SDS011;2927;49.366;8.530;2023-03-01T01:27:45;16.40;;;8.40;;
5801;SDS011;2927;49.366;8.530;2023-03-01T01:30:10;15.80;;;8.60;;
5801;SDS011;2927;49.366;8.530;2023-03-01T01:32:36;17.40;;;8.47;;
5801;SDS011;2927;49.366;8.530;2023-03-01T01:35:02;17.50;;;9.00;;
5801;SDS011;2927;49.366;8.530;2023-03-01T01:37:28;17.53;;;8.57;;
5801;SDS011;2927;49.366;8.530;2023-03-01T01:39:59;18.40;;;8.57;;
5801;SDS011;2927;49.366;8.530;2023-03-01T01:42:25;15.10;;;7.67;;
5801;SDS011;2927;49.366;8.530;2023-03-01T01:47:55;15.07;;;7.70;;
5801;SDS011;2927;49.366;8.530;2023-03-01T01:50:24;13.53;;;8.30;;
5801;SDS011;2927;49.366;8.530;2023-03-01T01:52:51;22.03;;;7.97;;
5801;SDS011;2927;49.366;8.530;2023-03-01T01:55:19;17.80;;;8.37;;
5801;SDS011;2927;49.366;8.530;2023-03-01T01:57:52;17.07;;;8.23;;
5801;SDS011;2927;49.366;8.530;2023-03-01T02:00:22;18.30;;;9.27;;
5801;SDS011;2927;49.366;8.530;2023-03-01T02:02:50;14.50;;;7.30;;
5801;SDS011;2927;49.366;8.530;2023-03-01T02:05:29;13.47;;;7.60;;
5801;SDS011;2927;49.366;8.530;2023-03-01T02:08:27;16.97;;;7.97;;
5801;SDS011;2927;49.366;8.530;2023-03-01T02:10:55;17.40;;;8.47;;
5801;SDS011;2927;49.366;8.530;2023-03-01T02:13:22;17.47;;;8.67;;
5801;SDS011;2927;49.366;8.530;2023-03-01T02:15:48;16.97;;;7.93;;
5801;SDS011;2927;49.366;8.530;2023-03-01T02:18:14;18.17;;;8.70;;
5801;SDS011;2927;49.366;8.530;2023-03-01T02:23:33;16.30;;;7.87;;
5801;SDS011;2927;49.366;8.530;2023-03-01T02:26:15;15.10;;;8.83;;
5801;SDS011;2927;49.366;8.530;2023-03-01T02:28:58;14.50;;;8.60;;
5801;SDS011;2927;49.366;8.530;2023-03-01T02:31:24;18.60;;;8.83;;
5801;SDS011;2927;49.366;8.530;2023-03-01T02:34:09;21.47;;;10.30;;
5801;SDS011;2927;49.366;8.530;2023-03-01T02:36:43;16.40;;;8.27;;
5801;SDS011;2927;49.366;8.530;2023-03-01T02:39:19;16.83;;;8.20;;
5801;SDS011;2927;49.366;8.530;2023-03-01T02:41:51;13.03;;;7.77;;
5801;SDS011;2927;49.366;8.530;2023-03-01T02:44:19;18.80;;;9.00;;
5801;SDS011;2927;49.366;8.530;2023-03-01T02:46:50;19.07;;;8.53;;
5801;SDS011;2927;49.366;8.530;2023-03-01T02:54:46;21.33;;;9.57;;
5801;SDS011;2927;49.366;8.530;2023-03-01T02:57:23;18.30;;;9.00;;
5801;SDS011;2927;49.366;8.530;2023-03-01T02:59:52;21.50;;;9.40;;
5801;SDS011;2927;49.366;8.530;2023-03-01T03:02:27;21.13;;;9.33;;
5801;SDS011;2927;49.366;8.530;2023-03-01T03:05:14;19.50;;;9.77;;
5801;SDS011;2927;49.366;8.530;2023-03-01T03:07:43;22.53;;;9.90;;
5801;SDS011;2927;49.366;8.530;2023-03-01T03:10:11;22.37;;;9.63;;
5801;SDS011;2927;49.366;8.530;2023-03-01T03:12:44;16.13;;;8.90;;
5801;SDS011;2927;49.366;8.530;2023-03-01T03:15:17;18.60;;;9.13;;
5801;SDS011;2927;49.366;8.530;2023-03-01T03:17:45;21.77;;;10.30;;
5801;SDS011;2927;49.366;8.530;2023-03-01T03:20:11;17.33;;;9.07;;
5801;SDS011;2927;49.366;8.530;2023-03-01T03:22:43;20.60;;;10.37;;
5801;SDS011;2927;49.366;8.530;2023-03-01T03:25:10;20.60;;;9.90;;
5801;SDS011;2927;49.366;8.530;2023-03-01T03:27:36;22.40;;;9.87;;
5801;SDS011;2927;49.366;8.530;2023-03-01T03:30:04;20.27;;;9.10;;
5801;SDS011;2927;49.366;8.530;2023-03-01T03:32:34;19.17;;;8.43;;
5801;SDS011;2927;49.366;8.530;2023-03-01T03:35:05;26.83;;;10.37;;
5801;SDS011;2927;49.366;8.530;2023-03-01T03:37:37;18.53;;;9.17;;
5801;SDS011;2927;49.366;8.530;2023-03-01T03:40:22;18.77;;;9.73;;
5801;SDS011;2927;49.366;8.530;2023-03-01T03:42:48;21.27;;;9.57;;
5801;SDS011;2927;49.366;8.530;2023-03-01T03:45:14;20.30;;;9.50;;
5801;SDS011;2927;49.366;8.530;2023-03-01T03:47:40;15.80;;;9.17;;
5801;SDS011;2927;49.366;8.530;2023-03-01T03:50:06;27.50;;;10.57;;
5801;SDS011;2927;49.366;8.530;2023-03-01T03:52:32;20.40;;;10.70;;
5801;SDS011;2927;49.366;8.530;2023-03-01T03:54:58;18.80;;;9.90;;
5801;SDS011;2927;49.366;8.530;2023-03-01T03:57:23;19.43;;;10.00;;
5801;SDS011;2927;49.366;8.530;2023-03-01T03:59:49;21.90;;;11.60;;
5801;SDS011;2927;49.366;8.530;2023-03-01T04:02:14;23.10;;;11.13;;
5801;SDS011;2927;49.366;8.530;2023-03-01T04:04:46;21.97;;;10.80;;
5801;SDS011;2927;49.366;8.530;2023-03-01T04:07:15;25.50;;;11.93;;
5801;SDS011;2927;49.366;8.530;2023-03-01T04:09:42;23.53;;;11.80;;
5801;SDS011;2927;49.366;8.530;2023-03-01T04:12:08;21.33;;;9.67;;
5801;SDS011;2927;49.366;8.530;2023-03-01T04:14:34;19.90;;;9.90;;
5801;SDS011;2927;49.366;8.530;2023-03-01T04:17:00;24.90;;;10.27;;
5801;SDS011;2927;49.366;8.530;2023-03-01T04:19:26;25.63;;;10.50;;
5801;SDS011;2927;49.366;8.530;2023-03-01T04:21:52;22.00;;;10.10;;
5801;SDS011;2927;49.366;8.530;2023-03-01T04:24:18;19.87;;;9.43;;
5801;SDS011;2927;49.366;8.530;2023-03-01T04:26:43;21.67;;;10.13;;
5801;SDS011;2927;49.366;8.530;2023-03-01T04:29:09;22.87;;;10.00;;
5801;SDS011;2927;49.366;8.530;2023-03-01T04:31:34;19.63;;;9.83;;
5801;SDS011;2927;49.366;8.530;2023-03-01T04:34:00;24.00;;;10.60;;
5801;SDS011;2927;49.366;8.530;2023-03-01T04:36:27;24.50;;;11.07;;
5801;SDS011;2927;49.366;8.530;2023-03-01T04:38:54;23.87;;;10.50;;
5801;SDS011;2927;49.366;8.530;2023-03-01T04:41:21;22.13;;;9.57;;
5801;SDS011;2927;49.366;8.530;2023-03-01T04:43:48;23.10;;;11.00;;
5801;SDS011;2927;49.366;8.530;2023-03-01T04:46:15;17.00;;;9.70;;
5801;SDS011;2927;49.366;8.530;2023-03-01T04:48:44;21.57;;;10.53;;
5801;SDS011;2927;49.366;8.530;2023-03-01T04:51:11;22.50;;;10.67;;
5801;SDS011;2927;49.366;8.530;2023-03-01T04:53:38;16.70;;;9.70;;
5801;SDS011;2927;49.366;8.530;2023-03-01T04:56:04;20.70;;;9.80;;
5801;SDS011;2927;49.366;8.530;2023-03-01T04:58:31;19.47;;;9.40;;
5801;SDS011;2927;49.366;8.530;2023-03-01T05:00:57;22.17;;;11.00;;
5801;SDS011;2927;49.366;8.530;2023-03-01T05:03:22;24.17;;;11.57;;
5801;SDS011;2927;49.366;8.530;2023-03-01T05:05:49;18.13;;;8.73;;
5801;SDS011;2927;49.366;8.530;2023-03-01T05:08:16;35.90;;;11.97;;
5801;SDS011;2927;49.366;8.530;2023-03-01T05:10:47;22.10;;;11.43;;
5801;SDS011;2927;49.366;8.530;2023-03-01T05:13:15;30.33;;;11.00;;
5801;SDS011;2927;49.366;8.530;2023-03-01T05:15:46;27.13;;;11.80;;
5801;SDS011;2927;49.366;8.530;2023-03-01T05:18:22;23.27;;;12.97;;
5801;SDS011;2927;49.366;8.530;2023-03-01T05:20:50;19.13;;;10.13;;
5801;SDS011;2927;49.366;8.530;2023-03-01T05:23:17;27.23;;;11.97;;
5801;SDS011;2927;49.366;8.530;2023-03-01T05:25:43;25.43;;;10.60;;
5801;SDS011;2927;49.366;8.530;2023-03-01T05:28:12;28.83;;;12.10;;
5801;SDS011;2927;49.366;8.530;2023-03-01T05:30:37;27.97;;;11.83;;
5801;SDS011;2927;49.366;8.530;2023-03-01T05:33:06;26.40;;;12.20;;
5801;SDS011;2927;49.366;8.530;2023-03-01T05:35:38;24.40;;;11.03;;
5801;SDS011;2927;49.366;8.530;2023-03-01T05:38:04;25.30;;;9.93;;
5801;SDS011;2927;49.366;8.530;2023-03-01T05:40:29;27.97;;;12.50;;
5801;SDS011;2927;49.366;8.530;2023-03-01T05:42:58;22.67;;;11.60;;
5801;SDS011;2927;49.366;8.530;2023-03-01T05:45:24;26.23;;;11.90;;
5801;SDS011;2927;49.366;8.530;2023-03-01T05:47:51;29.00;;;11.23;;
5801;SDS011;2927;49.366;8.530;2023-03-01T05:50:25;21.17;;;10.60;;
5801;SDS011;2927;49.366;8.530;2023-03-01T05:52:57;22.27;;;10.27;;
5801;SDS011;2927;49.366;8.530;2023-03-01T05:55:24;22.87;;;12.40;;
5801;SDS011;2927;49.366;8.530;2023-03-01T05:57:50;28.13;;;11.57;;
5801;SDS011;2927;49.366;8.530;2023-03-01T06:00:16;35.83;;;11.80;;
5801;SDS011;2927;49.366;8.530;2023-03-01T06:02:44;23.33;;;10.33;;
5801;SDS011;2927;49.366;8.530;2023-03-01T06:05:10;23.63;;;11.00;;
5801;SDS011;2927;49.366;8.530;2023-03-01T06:07:37;29.30;;;11.47;;
5801;SDS011;2927;49.366;8.530;2023-03-01T06:10:03;25.50;;;11.70;;
5801;SDS011;2927;49.366;8.530;2023-03-01T06:12:31;27.00;;;11.80;;
5801;SDS011;2927;49.366;8.530;2023-03-01T06:14:58;25.77;;;12.60;;
5801;SDS011;2927;49.366;8.530;2023-03-01T06:17:23;28.43;;;11.20;;
5801;SDS011;2927;49.366;8.530;2023-03-01T06:19:49;28.77;;;13.30;;
5801;SDS011;2927;49.366;8.530;2023-03-01T06:22:15;20.60;;;10.17;;
5801;SDS011;2927;49.366;8.530;2023-03-01T06:24:40;25.03;;;12.43;;
5801;SDS011;2927;49.366;8.530;2023-03-01T06:27:06;29.30;;;10.97;;
5801;SDS011;2927;49.366;8.530;2023-03-01T06:29:31;26.20;;;11.13;;
5801;SDS011;2927;49.366;8.530;2023-03-01T06:31:57;24.50;;;11.00;;
5801;SDS011;2927;49.366;8.530;2023-03-01T06:34:22;26.93;;;12.50;;
5801;SDS011;2927;49.366;8.530;2023-03-01T06:36:48;20.97;;;10.90;;
5801;SDS011;2927;49.366;8.530;2023-03-01T06:39:14;31.30;;;12.47;;
5801;SDS011;2927;49.366;8.530;2023-03-01T06:41:39;24.60;;;12.20;;
5801;SDS011;2927;49.366;8.530;2023-03-01T06:44:05;24.70;;;12.73;;
5801;SDS011;2927;49.366;8.530;2023-03-01T06:46:30;22.80;;;12.40;;
5801;SDS011;2927;49.366;8.530;2023-03-01T06:48:56;31.00;;;11.97;;
5801;SDS011;2927;49.366;8.530;2023-03-01T06:51:21;24.97;;;12.07;;
5801;SDS011;2927;49.366;8.530;2023-03-01T06:53:47;29.77;;;14.87;;
5801;SDS011;2927;49.366;8.530;2023-03-01T06:56:12;27.80;;;12.93;;
5801;SDS011;2927;49.366;8.530;2023-03-01T06:58:38;25.43;;;12.20;;
5801;SDS011;2927;49.366;8.530;2023-03-01T07:01:07;24.80;;;11.80;;
5801;SDS011;2927;49.366;8.530;2023-03-01T07:03:33;25.67;;;11.30;;
5801;SDS011;2927;49.366;8.530;2023-03-01T07:05:59;24.50;;;11.40;;
5801;SDS011;2927;49.366;8.530;2023-03-01T07:08:25;31.17;;;12.20;;
5801;SDS011;2927;49.366;8.530;2023-03-01T07:10:58;22.93;;;10.73;;
5801;SDS011;2927;49.366;8.530;2023-03-01T07:13:24;22.23;;;10.47;;
5801;SDS011;2927;49.366;8.530;2023-03-01T07:15:49;21.60;;;11.10;;
5801;SDS011;2927;49.366;8.530;2023-03-01T07:18:15;30.77;;;12.60;;
5801;SDS011;2927;49.366;8.530;2023-03-01T07:20:41;23.70;;;10.63;;
5801;SDS011;2927;49.366;8.530;2023-03-01T07:23:06;23.47;;;10.77;;
5801;SDS011;2927;49.366;8.530;2023-03-01T07:25:32;22.70;;;12.17;;
5801;SDS011;2927;49.366;8.530;2023-03-01T07:27:58;32.20;;;12.30;;
5801;SDS011;2927;49.366;8.530;2023-03-01T07:30:24;25.60;;;12.30;;
5801;SDS011;2927;49.366;8.530;2023-03-01T07:32:52;27.90;;;12.13;;
5801;SDS011;2927;49.366;8.530;2023-03-01T07:35:18;19.10;;;10.10;;
5801;SDS011;2927;49.366;8.530;2023-03-01T07:37:43;30.33;;;12.17;;
5801;SDS011;2927;49.366;8.530;2023-03-01T07:40:09;24.27;;;12.27;;
5801;SDS011;2927;49.366;8.530;2023-03-01T07:42:35;24.50;;;11.67;;
5801;SDS011;2927;49.366;8.530;2023-03-01T07:45:02;22.33;;;10.80;;
5801;SDS011;2927;49.366;8.530;2023-03-01T07:47:28;21.80;;;10.93;;
5801;SDS011;2927;49.366;8.530;2023-03-01T07:49:53;23.27;;;11.70;;
5801;SDS011;2927;49.366;8.530;2023-03-01T07:52:19;22.43;;;11.23;;
5801;SDS011;2927;49.366;8.530;2023-03-01T07:54:45;24.70;;;11.27;;
5801;SDS011;2927;49.366;8.530;2023-03-01T07:57:10;30.63;;;11.67;;
5801;SDS011;2927;49.366;8.530;2023-03-01T07:59:36;44.10;;;11.83;;
5801;SDS011;2927;49.366;8.530;2023-03-01T08:02:01;22.90;;;11.70;;
5801;SDS011;2927;49.366;8.530;2023-03-01T08:04:27;23.80;;;11.13;;
5801;SDS011;2927;49.366;8.530;2023-03-01T08:06:53;21.30;;;10.87;;
5801;SDS011;2927;49.366;8.530;2023-03-01T08:09:19;24.87;;;12.87;;
5801;SDS011;2927;49.366;8.530;2023-03-01T08:11:45;19.00;;;11.30;;
5801;SDS011;2927;49.366;8.530;2023-03-01T08:14:10;20.50;;;10.47;;
5801;SDS011;2927;49.366;8.530;2023-03-01T08:16:36;24.00;;;11.80;;
5801;SDS011;2927;49.366;8.530;2023-03-01T08:19:06;23.43;;;12.30;;
5801;SDS011;2927;49.366;8.530;2023-03-01T08:21:33;23.90;;;11.87;;
5801;SDS011;2927;49.366;8.530;2023-03-01T08:24:02;19.23;;;7.07;;
5801;SDS011;2927;49.366;8.530;2023-03-01T08:26:29;20.30;;;10.83;;
5801;SDS011;2927;49.366;8.530;2023-03-01T08:28:55;22.07;;;11.27;;
5801;SDS011;2927;49.366;8.530;2023-03-01T08:31:25;18.57;;;10.60;;
5801;SDS011;2927;49.366;8.530;2023-03-01T08:33:54;24.63;;;11.67;;
5801;SDS011;2927;49.366;8.530;2023-03-01T08:36:22;19.33;;;10.77;;
5801;SDS011;2927;49.366;8.530;2023-03-01T08:38:49;22.90;;;11.03;;
5801;SDS011;2927;49.366;8.530;2023-03-01T08:41:14;23.27;;;10.80;;
5801;SDS011;2927;49.366;8.530;2023-03-01T08:43:40;15.40;;;8.77;;
5801;SDS011;2927;49.366;8.530;2023-03-01T08:46:06;20.67;;;11.00;;
5801;SDS011;2927;49.366;8.530;2023-03-01T08:48:31;24.37;;;12.40;;
5801;SDS011;2927;49.366;8.530;2023-03-01T08:51:06;23.07;;;10.73;;
5801;SDS011;2927;49.366;8.530;2023-03-01T08:53:33;22.93;;;11.10;;
5801;SDS011;2927;49.366;8.530;2023-03-01T08:55:59;22.70;;;12.17;;
5801;SDS011;2927;49.366;8.530;2023-03-01T08:58:27;24.33;;;11.10;;
5801;SDS011;2927;49.366;8.530;2023-03-01T09:00:53;24.33;;;11.77;;
5801;SDS011;2927;49.366;8.530;2023-03-01T09:03:18;15.60;;;9.10;;
5801;SDS011;2927;49.366;8.530;2023-03-01T09:05:44;20.23;;;11.50;;
5801;SDS011;2927;49.366;8.530;2023-03-01T09:08:10;22.80;;;11.47;;
5801;SDS011;2927;49.366;8.530;2023-03-01T09:10:39;24.00;;;11.13;;
5801;SDS011;2927;49.366;8.530;2023-03-01T09:13:05;26.57;;;12.60;;
5801;SDS011;2927;49.366;8.530;2023-03-01T09:15:30;20.57;;;11.30;;
5801;SDS011;2927;49.366;8.530;2023-03-01T09:17:56;18.03;;;11.30;;
5801;SDS011;2927;49.366;8.530;2023-03-01T09:20:21;26.80;;;13.20;;
5801;SDS011;2927;49.366;8.530;2023-03-01T09:22:47;22.97;;;12.03;;
5801;SDS011;2927;49.366;8.530;2023-03-01T09:25:12;20.13;;;11.00;;
5801;SDS011;2927;49.366;8.530;2023-03-01T09:27:38;20.70;;;11.43;;
5801;SDS011;2927;49.366;8.530;2023-03-01T09:30:04;28.50;;;12.80;;
5801;SDS011;2927;49.366;8.530;2023-03-01T09:32:30;25.33;;;13.53;;
5801;SDS011;2927;49.366;8.530;2023-03-01T09:34:56;30.67;;;12.07;;
5801;SDS011;2927;49.366;8.530;2023-03-01T09:37:31;26.20;;;11.33;;
5801;SDS011;2927;49.366;8.530;2023-03-01T09:39:58;22.70;;;12.10;;
5801;SDS011;2927;49.366;8.530;2023-03-01T09:42:23;21.17;;;12.03;;
5801;SDS011;2927;49.366;8.530;2023-03-01T09:48:02;21.70;;;12.77;;
5801;SDS011;2927;49.366;8.530;2023-03-01T09:50:35;35.57;;;14.83;;
5801;SDS011;2927;49.366;8.530;2023-03-01T09:53:20;25.40;;;12.83;;
5801;SDS011;2927;49.366;8.530;2023-03-01T09:55:50;23.37;;;12.03;;
5801;SDS011;2927;49.366;8.530;2023-03-01T10:01:23;28.23;;;13.33;;
5801;SDS011;2927;49.366;8.530;2023-03-01T10:04:03;23.63;;;11.80;;
5801;SDS011;2927;49.366;8.530;2023-03-01T10:06:36;26.57;;;12.33;;
5801;SDS011;2927;49.366;8.530;2023-03-01T10:09:07;30.00;;;13.73;;
5801;SDS011;2927;49.366;8.530;2023-03-01T10:11:38;25.77;;;12.83;;
5801;SDS011;2927;49.366;8.530;2023-03-01T10:16:54;21.40;;;12.00;;
5801;SDS011;2927;49.366;8.530;2023-03-01T10:19:39;22.23;;;12.97;;
5801;SDS011;2927;49.366;8.530;2023-03-01T10:22:19;20.17;;;11.10;;
5801;SDS011;2927;49.366;8.530;2023-03-01T10:24:48;26.50;;;12.37;;
5801;SDS011;2927;49.366;8.530;2023-03-01T10:27:22;21.50;;;12.00;;
5801;SDS011;2927;49.366;8.530;2023-03-01T10:29:57;25.47;;;12.87;;
5801;SDS011;2927;49.366;8.530;2023-03-01T10:32:27;24.10;;;11.57;;
5801;SDS011;2927;49.366;8.530;2023-03-01T10:34:53;20.73;;;11.30;;
5801;SDS011;2927;49.366;8.530;2023-03-01T10:37:20;22.60;;;12.17;;
5801;SDS011;2927;49.366;8.530;2023-03-01T10:40:06;17.80;;;11.10;;
5801;SDS011;2927;49.366;8.530;2023-03-01T10:42:36;21.60;;;11.70;;
5801;SDS011;2927;49.366;8.530;2023-03-01T10:50:49;20.50;;;12.27;;
5801;SDS011;2927;49.366;8.530;2023-03-01T10:53:40;20.37;;;11.30;;
5801;SDS011;2927;49.366;8.530;2023-03-01T10:56:12;27.83;;;12.30;;
5801;SDS011;2927;49.366;8.530;2023-03-01T10:58:40;23.33;;;11.80;;
5801;SDS011;2927;49.366;8.530;2023-03-01T11:03:55;20.50;;;11.20;;
5801;SDS011;2927;49.366;8.530;2023-03-01T11:06:32;21.93;;;10.97;;
5801;SDS011;2927;49.366;8.530;2023-03-01T11:09:21;25.47;;;10.90;;
5801;SDS011;2927;49.366;8.530;2023-03-01T11:11:54;22.30;;;11.57;;
5801;SDS011;2927;49.366;8.530;2023-03-01T11:14:22;23.77;;;12.30;;
5801;SDS011;2927;49.366;8.530;2023-03-01T11:17:12;20.17;;;11.60;;
5801;SDS011;2927;49.366;8.530;2023-03-01T11:19:48;26.87;;;12.83;;
5801;SDS011;2927;49.366;8.530;2023-03-01T11:22:25;26.30;;;11.93;;
5801;SDS011;2927;49.366;8.530;2023-03-01T11:24:53;19.37;;;11.40;;
5801;SDS011;2927;49.366;8.530;2023-03-01T11:27:21;25.93;;;12.50;;
5801;SDS011;2927;49.366;8.530;2023-03-01T11:29:55;22.00;;;12.43;;
5801;SDS011;2927;49.366;8.530;2023-03-01T11:35:37;21.93;;;11.73;;
5801;SDS011;2927;49.366;8.530;2023-03-01T11:38:15;21.97;;;12.93;;
5801;SDS011;2927;49.366;8.530;2023-03-01T11:40:49;21.97;;;12.17;;
5801;SDS011;2927;49.366;8.530;2023-03-01T11:45:56;23.60;;;12.17;;
5801;SDS011;2927;49.366;8.530;2023-03-01T11:48:34;24.57;;;12.43;;
5801;SDS011;2927;49.366;8.530;2023-03-01T11:51:09;22.13;;;12.30;;
5801;SDS011;2927;49.366;8.530;2023-03-01T11:53:51;20.10;;;12.13;;
5801;SDS011;2927;49.366;8.530;2023-03-01T11:56:38;25.40;;;12.50;;
5801;SDS011;2927;49.366;8.530;2023-03-01T12:04:45;18.47;;;10.33;;
5801;SDS011;2927;49.366;8.530;2023-03-01T12:10:04;19.07;;;11.27;;
5801;SDS011;2927;49.366;8.530;2023-03-01T12:15:20;25.30;;;12.63;;
5801;SDS011;2927;49.366;8.530;2023-03-01T12:18:05;19.13;;;11.77;;
5801;SDS011;2927;49.366;8.530;2023-03-01T12:26:54;29.30;;;11.93;;
5801;SDS011;2927;49.366;8.530;2023-03-01T12:32:33;25.97;;;12.70;;
5801;SDS011;2927;49.366;8.530;2023-03-01T12:35:30;22.40;;;11.93;;
5801;SDS011;2927;49.366;8.530;2023-03-01T12:49:37;22.63;;;12.30;;
5801;SDS011;2927;49.366;8.530;2023-03-01T12:52:11;23.13;;;12.77;;
5801;SDS011;2927;49.366;8.530;2023-03-01T12:54:49;22.63;;;12.40;;
5801;SDS011;2927;49.366;8.530;2023-03-01T12:57:30;21.63;;;11.97;;
5801;SDS011;2927;49.366;8.530;2023-03-01T13:03:04;19.53;;;10.77;;
5801;SDS011;2927;49.366;8.530;2023-03-01T13:11:42;23.27;;;11.67;;
5801;SDS011;2927;49.366;8.530;2023-03-01T13:16:46;21.37;;;12.20;;
5801;SDS011;2927;49.366;8.530;2023-03-01T13:21:47;22.47;;;11.97;;
5801;SDS011;2927;49.366;8.530;2023-03-01T13:24:28;20.27;;;11.20;;
5801;SDS011;2927;49.366;8.530;2023-03-01T13:32:22;21.63;;;11.00;;
5801;SDS011;2927;49.366;8.530;2023-03-01T13:34:58;18.23;;;10.90;;
5801;SDS011;2927;49.366;8.530;2023-03-01T13:37:26;24.53;;;12.60;;
5801;SDS011;2927;49.366;8.530;2023-03-01T13:39:54;24.70;;;12.70;;
5801;SDS011;2927;49.366;8.530;2023-03-01T13:47:54;18.83;;;10.87;;
5801;SDS011;2927;49.366;8.530;2023-03-01T13:50:24;21.63;;;10.90;;
5801;SDS011;2927;49.366;8.530;2023-03-01T13:52:56;20.57;;;11.07;;
5801;SDS011;2927;49.366;8.530;2023-03-01T13:58:18;21.90;;;10.00;;
5801;SDS011;2927;49.366;8.530;2023-03-01T14:03:25;17.17;;;9.27;;
5801;SDS011;2927;49.366;8.530;2023-03-01T14:06:01;20.67;;;10.97;;
5801;SDS011;2927;49.366;8.530;2023-03-01T14:08:38;21.37;;;11.20;;
5801;SDS011;2927;49.366;8.530;2023-03-01T14:16:12;19.23;;;10.40;;
5801;SDS011;2927;49.366;8.530;2023-03-01T14:19:23;14.47;;;8.93;;
5801;SDS011;2927;49.366;8.530;2023-03-01T14:24:36;15.03;;;8.53;;
5801;SDS011;2927;49.366;8.530;2023-03-01T14:27:10;16.80;;;10.00;;
5801;SDS011;2927;49.366;8.530;2023-03-01T14:29:38;15.67;;;8.60;;
5801;SDS011;2927;49.366;8.530;2023-03-01T14:32:08;13.27;;;7.43;;
5801;SDS011;2927;49.366;8.530;2023-03-01T14:34:35;16.00;;;8.17;;
5801;SDS011;2927;49.366;8.530;2023-03-01T14:39:50;12.43;;;8.37;;
5801;SDS011;2927;49.366;8.530;2023-03-01T14:42:17;19.87;;;10.27;;
5801;SDS011;2927;49.366;8.530;2023-03-01T14:44:45;18.53;;;9.93;;
5801;SDS011;2927;49.366;8.530;2023-03-01T14:47:23;12.70;;;8.27;;
5801;SDS011;2927;49.366;8.530;2023-03-01T14:49:49;20.33;;;10.30;;
5801;SDS011;2927;49.366;8.530;2023-03-01T14:52:21;15.40;;;8.30;;
5801;SDS011;2927;49.366;8.530;2023-03-01T14:54:59;15.90;;;8.80;;
5801;SDS011;2927;49.366;8.530;2023-03-01T14:57:29;15.20;;;9.30;;
5801;SDS011;2927;49.366;8.530;2023-03-01T14:59:55;17.93;;;9.50;;
5801;SDS011;2927;49.366;8.530;2023-03-01T15:02:25;14.77;;;8.80;;
5801;SDS011;2927;49.366;8.530;2023-03-01T15:04:55;17.73;;;8.77;;
5801;SDS011;2927;49.366;8.530;2023-03-01T15:07:23;14.50;;;7.37;;
5801;SDS011;2927;49.366;8.530;2023-03-01T15:09:56;15.60;;;8.93;;
5801;SDS011;2927;49.366;8.530;2023-03-01T15:12:39;13.73;;;9.10;;
5801;SDS011;2927;49.366;8.530;2023-03-01T15:15:19;12.33;;;7.37;;
5801;SDS011;2927;49.366;8.530;2023-03-01T15:17:58;13.40;;;7.47;;
5801;SDS011;2927;49.366;8.530;2023-03-01T15:20:26;16.13;;;8.97;;
5801;SDS011;2927;49.366;8.530;2023-03-01T15:22:55;16.60;;;8.20;;
5801;SDS011;2927;49.366;8.530;2023-03-01T15:25:26;13.03;;;8.17;;
5801;SDS011;2927;49.366;8.530;2023-03-01T15:27:54;17.10;;;9.17;;
5801;SDS011;2927;49.366;8.530;2023-03-01T15:30:22;23.63;;;9.47;;
5801;SDS011;2927;49.366;8.530;2023-03-01T15:35:45;15.63;;;9.67;;
5801;SDS011;2927;49.366;8.530;2023-03-01T15:40:50;15.67;;;9.40;;
5801;SDS011;2927;49.366;8.530;2023-03-01T15:46:16;15.87;;;9.23;;
5801;SDS011;2927;49.366;8.530;2023-03-01T15:48:45;15.87;;;7.57;;
5801;SDS011;2927;49.366;8.530;2023-03-01T15:51:17;17.83;;;10.13;;
5801;SDS011;2927;49.366;8.530;2023-03-01T15:53:46;22.00;;;10.90;;
5801;SDS011;2927;49.366;8.530;2023-03-01T15:56:16;16.13;;;9.47;;
5801;SDS011;2927;49.366;8.530;2023-03-01T15:58:42;18.87;;;8.70;;
5801;SDS011;2927;49.366;8.530;2023-03-01T16:01:10;14.67;;;8.10;;
5801;SDS011;2927;49.366;8.530;2023-03-01T16:03:38;17.37;;;9.50;;
5801;SDS011;2927;49.366;8.530;2023-03-01T16:06:03;14.40;;;8.07;;
5801;SDS011;2927;49.366;8.530;2023-03-01T16:08:29;13.97;;;7.80;;
5801;SDS011;2927;49.366;8.530;2023-03-01T16:10:54;15.80;;;9.17;;
5801;SDS011;2927;49.366;8.530;2023-03-01T16:13:20;20.53;;;10.03;;
5801;SDS011;2927;49.366;8.530;2023-03-01T16:15:47;19.13;;;9.30;;
5801;SDS011;2927;49.366;8.530;2023-03-01T16:18:12;14.07;;;8.50;;
5801;SDS011;2927;49.366;8.530;2023-03-01T16:20:38;18.83;;;8.30;;
5801;SDS011;2927;49.366;8.530;2023-03-01T16:23:05;16.60;;;8.43;;
5801;SDS011;2927;49.366;8.530;2023-03-01T16:25:33;14.33;;;8.40;;
5801;SDS011;2927;49.366;8.530;2023-03-01T16:27:59;15.53;;;8.20;;
5801;SDS011;2927;49.366;8.530;2023-03-01T16:30:29;20.20;;;9.50;;
5801;SDS011;2927;49.366;8.530;2023-03-01T16:32:55;16.87;;;9.10;;
5801;SDS011;2927;49.366;8.530;2023-03-01T16:35:21;15.03;;;8.70;;
5801;SDS011;2927;49.366;8.530;2023-03-01T16:37:47;15.00;;;8.50;;
5801;SDS011;2927;49.366;8.530;2023-03-01T16:40:24;13.60;;;8.50;;
5801;SDS011;2927;49.366;8.530;2023-03-01T16:42:53;15.57;;;8.80;;
5801;SDS011;2927;49.366;8.530;2023-03-01T16:45:24;12.53;;;8.60;;
5801;SDS011;2927;49.366;8.530;2023-03-01T16:47:50;15.20;;;8.77;;
5801;SDS011;2927;49.366;8.530;2023-03-01T16:50:16;18.13;;;9.87;;
5801;SDS011;2927;49.366;8.530;2023-03-01T16:52:41;15.23;;;9.03;;
5801;SDS011;2927;49.366;8.530;2023-03-01T16:55:07;17.93;;;9.43;;
5801;SDS011;2927;49.366;8.530;2023-03-01T16:57:34;14.63;;;8.20;;
5801;SDS011;2927;49.366;8.530;2023-03-01T17:00:00;19.10;;;10.20;;
5801;SDS011;2927;49.366;8.530;2023-03-01T17:02:36;19.00;;;9.70;;